Etusivu
METAR-TAF:

METAR-TAF

Lentoasemat :

Black_Hills

Spearfish, Etelä-Dakota, Yhdysvallat

Leveyspiiri: 44-29N, Pituuspiiri: 103-47W, korkeus merenpinnasta: 1188 m

Tämänhetkinen sää

Tämä raportti tehtiin 9 minuuttia sitten, kello 17.55 UTC
Tuuli 9 kn idästä puuskistuen 15 kn:hen
Lämpötila 19°C
Kosteus 49%
Ilmanpaine 1023 hPa
Näkyvyys: 16.1 km
selkeää

METAR: KSPF 291755Z AUTO 09009G15KT 10SM CLR 19/08 A3020 RMK AO2

Aika: 12:04 (18:04 UTC)


TAF: puuttuu

Säähavainnot ja -ennusteet yli 4000 lentoasemalta (METAR- ja TAF-raportit).

Käytössä olevat sääasemat on merkitty karttaan keltaisilla ja punaisilla pisteillä.

Aseta hiiri pisteen päälle nähdäksesi sääaseman nimen.

Klikkaa sitten nähdäksesi säähavainnot ja -ennusteet.

Kartan vaihtaminen: klikkaa mustalla rastilla varustettuja vihreitä pisteitä, niin voit zoomata sisään; viivalla varustettua vihreää pistettä, niin voit zoomata ulos tai vihreitä nuolia, niin pääset viereisille kartoille.


METAR-TAF: